Sunday, March 24, 2019, 7:35 PM EDT
Back to Local

KMPO, Mt Pocono Pocono Mountains

Location: Pocono Summit, PA, United States Lat: 41.133
Local Time: 7:35 PM EDT (23:35 GMT) Lon: -75.383
Time Zone: US/Eastern Elev: 1915 ft

Show me the last for .
Show Coded

Time T Td Feel RH Dir Speed Gust Alt SLP Vis Weather Sky Remarks
2019-03-24 18:53 46 16 40 29 260° 14 - 30.01 30.06 10 BKN090 OVC120 None
2019-03-24 17:53 47 13 38 24 260° 17 28 30.01 30.05 10 SCT120 None
2019-03-24 16:53 48 19 41 31 260° 13 20 30.01 30.05 10 FEW110 None
2019-03-24 15:53 49 17 43 27 230° 16 - 30.01 30.05 10 FEW075 SCT095 None
2019-03-24 14:53 47 15 41 27 260° 13 - 30.04 30.09 10 CLR None
2019-03-24 13:53 47 15 39 27 250° 17 24 30.09 30.13 10 CLR 6-hr Min Temp (2pm): 28.0°F
6-hr Max Temp (2pm): 46.9°F
2019-03-24 12:53 46 14 40 27 250° 13 - 30.10 30.14 10 CLR None
2019-03-24 11:53 43 14 37 30 260° 12 - 30.13 30.18 10 CLR None
2019-03-24 10:53 40 12 31 31 280° 16 - 30.14 30.19 10 CLR None
2019-03-24 09:53 36 12 27 36 290° 15 - 30.15 30.20 10 CLR None
2019-03-24 08:53 32 12 22 42 280° 14 - 30.15 30.21 10 CLR None
2019-03-24 07:53 28 11 17 48 280° 14 - 30.15 30.21 10 CLR 6-hr Min Temp (8am): 24.1°F
6-hr Max Temp (8am): 28.9°F
2019-03-24 06:53 25 10 14 52 280° 12 - 30.13 30.20 10 CLR None
2019-03-24 05:53 26 10 16 50 290° 10 - 30.12 30.18 10 CLR None
2019-03-24 04:53 26 11 16 52 280° 10 - 30.11 30.17 10 CLR None
2019-03-24 03:53 28 11 18 48 290° 12 - 30.10 30.16 10 CLR None
2019-03-24 02:53 29 11 15 46 280° 13 22 30.10 30.16 10 CLR None
2019-03-24 01:53 28 11 17 48 280° 15 - 30.10 30.16 10 CLR 6-hr Min Temp (2am): 28.0°F
6-hr Max Temp (2am): 33.1°F
2019-03-24 00:53 29 11 18 46 290° 14 - 30.09 30.15 10 CLR 24-hr Min Temp (1am): 23.0°F
24-hr Max Temp (1am): 36.0°F
2019-03-23 23:53 30 12 20 46 300° 14 - 30.08 30.14 10 CLR None
2019-03-23 22:53 30 12 21 46 300° 12 - 30.07 30.14 10 CLR None
2019-03-23 21:53 31 11 17 42 290° 16 25 30.07 30.14 10 CLR None
2019-03-23 20:53 32 12 21 42 290° 16 - 30.07 30.14 10 CLR None
2019-03-23 19:53 32 12 23 42 300° 13 - 30.05 30.12 10 CLR 6-hr Min Temp (8pm): 32.0°F
6-hr Max Temp (8pm): 36.0°F

Support USWX by starting your Amazon purchase here.